Time;durP1;ratioP1;P1;durP2;ratioP2;P2;SDS_P1;SDS_P2;PMS_P1;PMS_P2;Temp;Humidity;BMP_temperature;BMP_pressure;BME280_temperature;BME280_humidity;BME280_pressure;Samples;Min_cycle;Max_cycle;Signal;HPM_P1;HPM_P2
2023/05/08 00:01:06;;;;;;;2.95;1.65;;;14.70;99.90;;;;;;5076480;28;20390;-80
2023/05/08 00:03:32;;;;;;;3.00;1.70;;;14.30;99.90;;;;;;5114537;28;20937;-80
2023/05/08 00:05:57;;;;;;;3.40;2.00;;;14.70;99.90;;;;;;5080599;28;20378;-80
2023/05/08 00:08:23;;;;;;;2.80;1.77;;;14.60;99.90;;;;;;5093908;28;20519;-81
2023/05/08 00:10:49;;;;;;;2.25;2.00;;;15.40;99.90;;;;;;5093697;28;20397;-80
2023/05/08 00:13:14;;;;;;;1.60;1.50;;;14.70;99.90;;;;;;5111454;28;20392;-80
2023/05/08 00:15:40;;;;;;;2.43;1.97;;;14.80;99.90;;;;;;5105881;28;20390;-80
2023/05/08 00:18:05;;;;;;;1.70;1.60;;;14.70;99.90;;;;;;5093360;28;20401;-80
2023/05/08 00:20:33;;;;;;;2.70;2.10;;;14.80;99.90;;;;;;5093021;28;20421;-80
2023/05/08 00:22:58;;;;;;;3.10;1.70;;;14.80;99.90;;;;;;5075169;28;20382;-80
2023/05/08 00:25:24;;;;;;;1.70;1.60;;;14.50;99.90;;;;;;5077938;28;20380;-79
2023/05/08 00:27:49;;;;;;;3.45;1.60;;;14.70;99.90;;;;;;5113076;28;20388;-80
2023/05/08 00:30:15;;;;;;;2.90;1.55;;;14.70;99.90;;;;;;5109027;28;20503;-80
2023/05/08 00:32:41;;;;;;;1.67;1.55;;;14.70;99.90;;;;;;5092833;28;20469;-80
2023/05/08 00:35:06;;;;;;;1.90;1.80;;;14.10;99.90;;;;;;5074916;28;20405;-80
2023/05/08 00:37:32;;;;;;;2.10;1.43;;;14.60;99.90;;;;;;5092866;28;20538;-80
2023/05/08 00:39:57;;;;;;;2.20;1.60;;;14.70;99.90;;;;;;5093331;28;20401;-80
2023/05/08 00:42:23;;;;;;;1.88;1.70;;;14.40;99.90;;;;;;5113523;28;20376;-80
2023/05/08 00:44:49;;;;;;;2.17;1.40;;;14.60;99.90;;;;;;5095047;28;20394;-80
2023/05/08 00:47:14;;;;;;;2.07;1.50;;;14.50;99.90;;;;;;5094232;28;20372;-80
2023/05/08 00:49:40;;;;;;;1.90;1.70;;;14.60;99.90;;;;;;5104248;28;20405;-80
2023/05/08 00:52:09;;;;;;;2.78;1.55;;;14.90;99.90;;;;;;5093022;28;20390;-80
2023/05/08 00:54:36;;;;;;;2.00;1.80;;;14.60;99.90;;;;;;5092917;28;20382;-80
2023/05/08 00:57:05;;;;;;;1.60;1.50;;;14.60;99.90;;;;;;5091798;28;20422;-80
2023/05/08 00:59:32;;;;;;;1.80;1.70;;;15.50;99.90;;;;;;5098791;28;20385;-80
2023/05/08 01:01:59;;;;;;;2.60;1.90;;;14.60;99.90;;;;;;5112906;28;20383;-80
2023/05/08 01:04:26;;;;;;;2.10;1.47;;;14.60;99.90;;;;;;5111694;28;20382;-81
2023/05/08 01:06:52;;;;;;;1.90;1.80;;;14.30;99.90;;;;;;5091596;28;20386;-80
2023/05/08 01:09:17;;;;;;;2.20;2.00;;;14.60;99.90;;;;;;5110716;28;20402;-80
2023/05/08 01:11:52;;;;;;;3.00;2.10;;;14.50;99.90;;;;;;5112415;28;20482;-79
2023/05/08 01:14:18;;;;;;;2.40;2.20;;;14.30;99.90;;;;;;5111050;28;20865;-80
2023/05/08 01:17:18;;;;;;;2.90;1.90;;;14.60;99.90;;;;;;5111792;28;20537;-80
2023/05/08 01:20:05;;;;;;;2.78;1.80;;;14.70;99.90;;;;;;5094330;28;20388;-80
2023/05/08 01:23:07;;;;;;;2.10;1.90;;;14.70;99.90;;;;;;5112451;28;20376;-80
2023/05/08 01:26:09;;;;;;;2.10;1.75;;;14.60;99.90;;;;;;5111459;28;20433;-80
2023/05/08 01:29:04;;;;;;;2.00;1.65;;;14.60;99.90;;;;;;5090734;28;20924;-80
2023/05/08 01:32:05;;;;;;;4.15;1.90;;;14.50;99.90;;;;;;5087906;28;20510;-80
2023/05/08 01:34:32;;;;;;;2.20;2.00;;;14.60;99.90;;;;;;5074717;28;20422;-80
2023/05/08 01:37:04;;;;;;;2.30;2.10;;;14.50;99.90;;;;;;5091138;28;20398;-80
2023/05/08 01:39:46;;;;;;;2.20;2.00;;;14.60;99.90;;;;;;5092363;28;20475;-80
2023/05/08 01:42:22;;;;;;;5.95;2.20;;;14.60;99.90;;;;;;5110543;28;20475;-80
2023/05/08 01:44:53;;;;;;;2.45;1.70;;;14.60;99.90;;;;;;5112268;28;20373;-80
2023/05/08 01:47:22;;;;;;;3.78;1.90;;;14.80;99.90;;;;;;5111764;28;20373;-80
2023/05/08 01:49:52;;;;;;;2.28;1.90;;;14.00;99.90;;;;;;5113522;28;20394;-80
2023/05/08 01:52:25;;;;;;;2.40;2.20;;;14.60;99.90;;;;;;5077955;28;20393;-80
2023/05/08 01:55:02;;;;;;;2.72;2.53;;;14.50;99.90;;;;;;5112618;28;20387;-80
2023/05/08 01:57:31;;;;;;;2.20;2.00;;;14.00;99.90;;;;;;5112026;28;20431;-80
2023/05/08 01:59:59;;;;;;;2.80;2.30;;;14.60;99.90;;;;;;5094537;28;20423;-80
2023/05/08 02:02:27;;;;;;;4.32;1.90;;;14.60;99.90;;;;;;5110133;28;20474;-80
2023/05/08 02:04:53;;;;;;;1.97;1.80;;;14.60;99.90;;;;;;5104804;28;20470;-79
2023/05/08 02:07:22;;;;;;;3.10;1.80;;;14.60;99.90;;;;;;5123541;28;20508;-79
2023/05/08 02:09:48;;;;;;;4.25;2.10;;;14.50;99.90;;;;;;5123130;28;20435;-80
2023/05/08 02:12:15;;;;;;;3.97;2.00;;;14.40;99.90;;;;;;5120284;28;20421;-80
2023/05/08 02:14:42;;;;;;;5.33;2.20;;;14.20;99.90;;;;;;5118992;28;20492;-79
2023/05/08 02:17:09;;;;;;;2.00;1.90;;;14.40;99.90;;;;;;5119665;28;20434;-80
2023/05/08 02:19:38;;;;;;;2.50;2.30;;;14.50;99.90;;;;;;5102945;28;20381;-80
2023/05/08 02:22:06;;;;;;;2.38;2.10;;;14.30;99.90;;;;;;5115136;28;20476;-79
2023/05/08 02:24:34;;;;;;;4.57;2.20;;;14.50;99.90;;;;;;5094737;28;20741;-80
2023/05/08 02:27:00;;;;;;;2.20;2.00;;;14.30;99.90;;;;;;5074040;28;20412;-80
2023/05/08 02:29:27;;;;;;;3.42;2.25;;;14.50;99.90;;;;;;5091972;28;20465;-80
2023/05/08 02:31:54;;;;;;;2.65;2.10;;;14.50;99.90;;;;;;5102906;28;20396;-80
2023/05/08 02:34:22;;;;;;;1.83;1.73;;;14.50;99.90;;;;;;5093671;28;20400;-80
2023/05/08 02:36:50;;;;;;;2.83;2.05;;;14.50;99.90;;;;;;5111792;28;20408;-79
2023/05/08 02:39:18;;;;;;;2.38;2.20;;;14.50;99.90;;;;;;5093863;28;20673;-80
2023/05/08 02:41:43;;;;;;;2.60;2.40;;;14.20;99.90;;;;;;5109486;28;20388;-80
2023/05/08 02:44:09;;;;;;;4.37;2.00;;;14.50;99.90;;;;;;5097400;28;20444;-80
2023/05/08 02:46:48;;;;;;;3.08;2.28;;;14.50;99.90;;;;;;5115091;28;20384;-80
2023/05/08 02:49:26;;;;;;;3.92;2.40;;;14.50;99.90;;;;;;5116227;28;20408;-80
2023/05/08 02:52:21;;;;;;;2.40;2.20;;;14.60;99.90;;;;;;5089300;28;20393;-80
2023/05/08 02:55:13;;;;;;;2.40;2.20;;;14.50;99.90;;;;;;5077164;28;20393;-79
2023/05/08 02:57:49;;;;;;;3.30;2.30;;;14.50;99.90;;;;;;5094453;28;20401;-79
2023/05/08 03:00:23;;;;;;;2.40;2.20;;;14.50;99.90;;;;;;5077045;28;20397;-80
2023/05/08 03:02:53;;;;;;;2.55;2.35;;;14.50;99.90;;;;;;5079900;28;20832;-80
2023/05/08 03:05:25;;;;;;;2.30;2.10;;;14.40;99.90;;;;;;5096840;28;20393;-79
2023/05/08 03:07:54;;;;;;;2.50;2.30;;;14.50;99.90;;;;;;5096639;28;20392;-80
2023/05/08 03:10:25;;;;;;;3.00;2.67;;;14.60;99.90;;;;;;5096276;28;20803;-80
2023/05/08 03:12:54;;;;;;;2.40;2.30;;;14.50;99.90;;;;;;5115377;28;20380;-79
2023/05/08 03:15:25;;;;;;;2.40;2.20;;;14.50;99.90;;;;;;5115697;28;20410;-79
2023/05/08 03:17:59;;;;;;;4.00;2.15;;;14.50;99.90;;;;;;5096623;28;20396;-79
2023/05/08 03:20:30;;;;;;;2.20;2.10;;;14.30;99.90;;;;;;5085882;28;20900;-79
2023/05/08 03:22:56;;;;;;;2.30;2.08;;;14.50;99.90;;;;;;5094798;28;20370;-80
2023/05/08 03:25:22;;;;;;;3.00;2.80;;;14.20;99.90;;;;;;5115293;28;20737;-80
2023/05/08 03:27:49;;;;;;;3.05;2.58;;;14.40;99.90;;;;;;5096149;28;20383;-79
2023/05/08 03:30:15;;;;;;;2.90;2.70;;;14.40;99.90;;;;;;5096687;28;20384;-79
2023/05/08 03:32:43;;;;;;;2.60;2.10;;;14.50;99.90;;;;;;5129986;22;20405;-80
2023/05/08 03:35:09;;;;;;;2.75;2.55;;;14.50;99.90;;;;;;5094500;28;20392;-79
2023/05/08 03:37:34;;;;;;;3.35;2.28;;;14.40;99.90;;;;;;5096101;28;20402;-78
2023/05/08 03:40:00;;;;;;;2.78;2.58;;;14.80;99.90;;;;;;5101076;28;20409;-78
2023/05/08 03:42:26;;;;;;;2.17;2.05;;;14.40;99.90;;;;;;5086160;28;20388;-78
2023/05/08 03:44:53;;;;;;;2.50;2.30;;;14.40;99.90;;;;;;5079562;28;20470;-78
2023/05/08 03:47:19;;;;;;;2.60;2.40;;;14.40;99.90;;;;;;5076736;28;20467;-78
2023/05/08 03:49:47;;;;;;;3.00;2.58;;;14.20;99.90;;;;;;5092510;28;20396;-77
2023/05/08 03:52:14;;;;;;;2.88;2.60;;;14.50;99.90;;;;;;5092355;28;20404;-77
2023/05/08 03:54:39;;;;;;;3.58;2.83;;;14.50;99.90;;;;;;5093430;28;20886;-77
2023/05/08 03:57:05;;;;;;;3.10;2.63;;;14.20;99.90;;;;;;5088272;28;20486;-79
2023/05/08 03:59:33;;;;;;;2.80;2.47;;;14.50;99.90;;;;;;5094204;28;20753;-78
2023/05/08 04:02:12;;;;;;;3.60;2.60;;;14.50;99.90;;;;;;5076052;28;20400;-79
2023/05/08 04:04:44;;;;;;;2.80;2.60;;;16.10;99.90;;;;;;5090731;28;21035;-79
2023/05/08 04:07:46;;;;;;;5.70;3.15;;;14.50;99.90;;;;;;5080012;28;20400;-79
2023/05/08 04:10:23;;;;;;;5.13;2.97;;;14.50;99.90;;;;;;5093963;28;20389;-79
2023/05/08 04:13:03;;;;;;;4.20;2.80;;;14.60;99.90;;;;;;5085387;28;20915;-79
2023/05/08 04:15:32;;;;;;;2.90;2.70;;;14.50;99.90;;;;;;5072992;28;20379;-80
2023/05/08 04:18:05;;;;;;;3.28;2.85;;;14.40;99.90;;;;;;5056094;28;20897;-78
2023/05/08 04:20:31;;;;;;;2.90;2.60;;;14.50;99.90;;;;;;5073664;28;20395;-79
2023/05/08 04:22:57;;;;;;;3.45;3.10;;;14.40;99.90;;;;;;5064423;28;20477;-78
2023/05/08 04:25:23;;;;;;;3.60;2.90;;;14.40;99.90;;;;;;5080360;28;20398;-79
2023/05/08 04:27:50;;;;;;;3.10;2.90;;;14.40;99.90;;;;;;5072943;28;20406;-78
2023/05/08 04:30:16;;;;;;;4.32;2.90;;;14.00;99.90;;;;;;5074810;28;20384;-78
2023/05/08 04:32:43;;;;;;;3.17;2.97;;;14.20;99.90;;;;;;5073019;28;20402;-78
2023/05/08 04:35:12;;;;;;;3.78;3.40;;;14.50;99.90;;;;;;5081791;28;21280;-78
2023/05/08 04:37:38;;;;;;;3.37;3.07;;;14.50;99.90;;;;;;5078415;28;20406;-78
2023/05/08 04:40:04;;;;;;;3.70;3.40;;;14.50;99.90;;;;;;5073046;28;20380;-78
2023/05/08 04:42:29;;;;;;;4.78;3.30;;;14.70;99.90;;;;;;5055294;28;20383;-78
2023/05/08 04:44:55;;;;;;;3.50;3.20;;;14.10;99.90;;;;;;5055089;28;20985;-78
2023/05/08 04:47:21;;;;;;;3.27;3.07;;;14.50;99.90;;;;;;5082293;28;20386;-79
2023/05/08 04:49:46;;;;;;;3.47;3.20;;;14.50;99.90;;;;;;5093207;28;20381;-78
2023/05/08 04:52:12;;;;;;;3.65;3.35;;;14.50;99.90;;;;;;5059494;28;20425;-78
2023/05/08 04:54:38;;;;;;;3.88;3.15;;;14.10;99.90;;;;;;5072728;28;20382;-79
2023/05/08 04:57:04;;;;;;;3.60;3.30;;;14.50;99.90;;;;;;5053921;28;20917;-79
2023/05/08 04:59:29;;;;;;;3.53;3.22;;;14.50;99.90;;;;;;5072675;28;20394;-78
2023/05/08 05:01:55;;;;;;;3.50;3.30;;;14.70;99.90;;;;;;5084915;28;20454;-80
2023/05/08 05:04:21;;;;;;;3.50;3.20;;;14.60;99.90;;;;;;5074272;28;20393;-78
2023/05/08 05:06:47;;;;;;;3.78;3.40;;;14.90;99.90;;;;;;5074635;28;20441;-78
2023/05/08 05:09:13;;;;;;;4.07;3.30;;;14.20;99.90;;;;;;5092835;28;20382;-78
2023/05/08 05:11:38;;;;;;;5.40;3.43;;;14.70;99.90;;;;;;5093088;28;20386;-78
2023/05/08 05:14:05;;;;;;;3.67;3.37;;;14.70;99.90;;;;;;5074866;28;20469;-78
2023/05/08 05:16:30;;;;;;;3.97;3.28;;;14.70;99.90;;;;;;5073829;28;20442;-78
2023/05/08 05:18:56;;;;;;;3.80;3.30;;;14.60;99.90;;;;;;5072976;28;20400;-78
2023/05/08 05:21:21;;;;;;;3.75;3.25;;;14.70;99.90;;;;;;5073482;28;20388;-79
2023/05/08 05:23:47;;;;;;;3.70;2.90;;;14.60;99.90;;;;;;5056747;28;20521;-78
2023/05/08 05:26:12;;;;;;;3.20;3.00;;;14.40;99.90;;;;;;5094487;28;20410;-79
2023/05/08 05:28:38;;;;;;;3.75;3.10;;;14.60;99.90;;;;;;5095828;28;20413;-79
2023/05/08 05:31:03;;;;;;;3.70;3.40;;;14.60;99.90;;;;;;5094538;28;20378;-78
2023/05/08 05:33:29;;;;;;;3.30;3.10;;;14.80;99.90;;;;;;5075344;28;20401;-78
2023/05/08 05:35:54;;;;;;;3.60;3.30;;;14.70;99.90;;;;;;5058781;28;20398;-78
2023/05/08 05:38:20;;;;;;;3.50;3.20;;;14.70;99.90;;;;;;5094507;28;20398;-78
2023/05/08 05:40:45;;;;;;;3.80;3.50;;;14.60;99.90;;;;;;5098901;28;20382;-78
2023/05/08 05:43:11;;;;;;;3.70;3.40;;;14.70;99.90;;;;;;5100131;28;20809;-78
2023/05/08 05:45:37;;;;;;;4.10;3.80;;;14.80;99.90;;;;;;5099270;28;20461;-78
2023/05/08 05:48:03;;;;;;;4.07;3.75;;;14.40;99.90;;;;;;5065125;28;20399;-78
2023/05/08 05:50:29;;;;;;;3.30;3.00;;;14.80;99.90;;;;;;5078019;28;20392;-78
2023/05/08 05:52:54;;;;;;;4.30;3.40;;;14.50;99.90;;;;;;5086095;28;20398;-78
2023/05/08 05:55:20;;;;;;;4.68;3.13;;;16.20;99.90;;;;;;5098548;28;20378;-78
2023/05/08 05:57:47;;;;;;;3.40;3.20;;;15.10;99.90;;;;;;5075777;28;20398;-79
2023/05/08 06:00:15;;;;;;;3.70;3.10;;;14.80;99.90;;;;;;5074370;28;20382;-78
2023/05/08 06:02:41;;;;;;;3.28;2.95;;;14.80;99.90;;;;;;5065338;28;20732;-79
2023/05/08 06:05:07;;;;;;;4.10;3.47;;;14.30;99.90;;;;;;5079687;28;20925;-79
2023/05/08 06:07:33;;;;;;;3.50;3.20;;;14.80;99.90;;;;;;5091899;28;20378;-78
2023/05/08 06:09:59;;;;;;;3.90;3.60;;;14.70;99.90;;;;;;5074247;28;20875;-78
2023/05/08 06:12:26;;;;;;;3.90;3.60;;;14.50;99.90;;;;;;5093066;28;20473;-78
2023/05/08 06:14:52;;;;;;;4.72;4.10;;;14.80;99.90;;;;;;5074852;28;20382;-79
2023/05/08 06:17:18;;;;;;;6.20;4.37;;;15.10;99.90;;;;;;5092509;28;20787;-79
2023/05/08 06:19:49;;;;;;;5.90;5.17;;;17.70;99.90;;;;;;5061565;28;20398;-79
2023/05/08 06:22:17;;;;;;;6.00;5.10;;;14.90;99.90;;;;;;5058414;28;20989;-79
2023/05/08 06:24:43;;;;;;;4.55;4.15;;;15.00;99.90;;;;;;5076587;28;20501;-79
2023/05/08 06:27:09;;;;;;;4.78;4.38;;;15.00;99.90;;;;;;5075737;28;20383;-79
2023/05/08 06:29:35;;;;;;;4.13;3.70;;;15.90;99.90;;;;;;5073297;28;20447;-80
2023/05/08 06:32:01;;;;;;;4.50;4.10;;;15.10;99.90;;;;;;5084183;28;20751;-79
2023/05/08 06:34:26;;;;;;;4.57;4.17;;;15.20;99.90;;;;;;5076316;28;20423;-80
2023/05/08 06:36:52;;;;;;;4.75;4.00;;;15.10;99.90;;;;;;5058052;28;20403;-79
2023/05/08 06:39:17;;;;;;;4.03;3.60;;;14.60;99.90;;;;;;5077125;28;20862;-79
2023/05/08 06:41:47;;;;;;;4.60;3.70;;;15.00;99.90;;;;;;5090632;28;20390;-79
2023/05/08 06:44:13;;;;;;;3.47;3.10;;;17.50;99.90;;;;;;5094830;28;20392;-79
2023/05/08 06:46:38;;;;;;;3.70;3.40;;;16.50;99.90;;;;;;5082509;28;20401;-79
2023/05/08 06:49:04;;;;;;;3.67;3.20;;;15.00;99.90;;;;;;5077491;28;20384;-79
2023/05/08 06:51:30;;;;;;;3.97;2.92;;;15.70;99.90;;;;;;5075314;28;20430;-80
2023/05/08 06:53:55;;;;;;;4.18;3.35;;;17.30;99.90;;;;;;5075226;28;20463;-80
2023/05/08 06:56:21;;;;;;;3.45;3.15;;;15.10;99.90;;;;;;5074524;28;20415;-79
2023/05/08 06:58:47;;;;;;;3.70;3.40;;;15.60;99.90;;;;;;5089711;28;20460;-79
2023/05/08 07:01:13;;;;;;;3.47;3.00;;;15.30;99.90;;;;;;5077625;28;20431;-79
2023/05/08 07:03:40;;;;;;;3.70;3.30;;;15.50;99.90;;;;;;5064632;28;20411;-79
2023/05/08 07:06:09;;;;;;;4.55;3.38;;;15.30;99.90;;;;;;5090268;28;20930;-79
2023/05/08 07:08:35;;;;;;;3.70;3.40;;;15.90;99.90;;;;;;5078204;28;20856;-79
2023/05/08 07:11:01;;;;;;;3.50;3.20;;;15.90;99.90;;;;;;5095997;28;20378;-79
2023/05/08 07:13:27;;;;;;;3.65;3.35;;;15.90;99.90;;;;;;5095159;28;20462;-79
2023/05/08 07:15:53;;;;;;;3.30;3.00;;;15.90;99.90;;;;;;5077294;28;20389;-79
2023/05/08 07:18:18;;;;;;;3.57;2.73;;;15.90;99.90;;;;;;5077808;28;20465;-79
2023/05/08 07:20:44;;;;;;;3.10;2.90;;;15.90;99.90;;;;;;5075701;28;20372;-79
2023/05/08 07:23:10;;;;;;;3.40;2.90;;;15.60;99.90;;;;;;5057676;28;20380;-78
2023/05/08 07:25:35;;;;;;;2.90;2.70;;;15.70;99.90;;;;;;5057003;28;20395;-78
2023/05/08 07:28:01;;;;;;;3.78;2.90;;;15.00;99.90;;;;;;5072129;28;20806;-78
2023/05/08 07:30:26;;;;;;;4.40;3.30;;;15.30;99.90;;;;;;5094996;28;20393;-78
2023/05/08 07:32:52;;;;;;;3.63;2.57;;;15.50;99.90;;;;;;5095919;28;20902;-79
2023/05/08 07:35:18;;;;;;;2.88;2.67;;;15.60;99.90;;;;;;5081788;28;20395;-79
2023/05/08 07:37:44;;;;;;;2.80;2.55;;;15.60;99.90;;;;;;5075298;28;20399;-78
2023/05/08 07:40:09;;;;;;;2.70;2.50;;;15.70;99.90;;;;;;5075744;28;20388;-79
2023/05/08 07:42:43;;;;;;;3.33;3.03;;;15.80;99.90;;;;;;5075227;28;20388;-78
2023/05/08 07:45:11;;;;;;;3.10;2.90;;;15.50;99.90;;;;;;5087159;28;20386;-79
2023/05/08 07:47:37;;;;;;;2.67;2.47;;;15.70;99.90;;;;;;5094893;28;20384;-79
2023/05/08 07:50:03;;;;;;;4.70;2.80;;;15.70;99.90;;;;;;5096054;28;20389;-79
2023/05/08 07:52:29;;;;;;;5.57;3.10;;;15.70;99.90;;;;;;5095403;28;20748;-78
2023/05/08 07:54:54;;;;;;;2.90;2.60;;;15.80;99.90;;;;;;5088867;28;20394;-78
2023/05/08 07:57:20;;;;;;;3.20;2.87;;;15.50;99.90;;;;;;5094485;28;20470;-77
2023/05/08 07:59:45;;;;;;;3.15;2.72;;;15.60;99.90;;;;;;5095168;28;20386;-78
2023/05/08 08:02:11;;;;;;;3.13;2.87;;;15.30;99.90;;;;;;5065279;28;20885;-78
2023/05/08 08:04:36;;;;;;;3.00;2.70;;;15.90;99.90;;;;;;5105390;28;20409;-78
2023/05/08 08:07:02;;;;;;;2.80;2.60;;;15.70;99.90;;;;;;5075451;28;20396;-78
2023/05/08 08:09:27;;;;;;;3.27;3.07;;;15.00;99.90;;;;;;5074949;28;20398;-77
2023/05/08 08:11:53;;;;;;;3.40;3.03;;;15.80;99.90;;;;;;5085080;28;20393;-77
2023/05/08 08:14:18;;;;;;;2.85;2.65;;;15.70;99.90;;;;;;5094605;28;20394;-78
2023/05/08 08:16:44;;;;;;;3.50;2.70;;;16.80;99.90;;;;;;5093645;28;20382;-79
2023/05/08 08:19:09;;;;;;;4.35;2.53;;;15.80;99.90;;;;;;5095036;28;20386;-79
2023/05/08 08:21:40;;;;;;;3.10;2.90;;;15.70;99.90;;;;;;5068859;28;20388;-79
2023/05/08 08:24:06;;;;;;;3.22;3.03;;;15.80;99.90;;;;;;5056218;28;20391;-79
2023/05/08 08:26:32;;;;;;;3.20;2.90;;;15.90;99.90;;;;;;5055211;28;20391;-79
2023/05/08 08:28:57;;;;;;;4.27;3.23;;;15.90;99.90;;;;;;5074587;28;20481;-80
2023/05/08 08:31:23;;;;;;;3.20;3.00;;;16.00;99.90;;;;;;5094259;28;20390;-79
2023/05/08 08:33:48;;;;;;;3.23;3.00;;;15.90;99.90;;;;;;5093786;28;20390;-79
2023/05/08 08:36:15;;;;;;;3.40;3.10;;;15.90;99.90;;;;;;5093224;28;20393;-79
2023/05/08 08:38:41;;;;;;;3.17;2.97;;;16.40;99.90;;;;;;5094533;28;20430;-79
2023/05/08 08:41:06;;;;;;;4.43;3.33;;;16.30;99.90;;;;;;5076752;28;20441;-78
2023/05/08 08:43:33;;;;;;;3.10;2.90;;;16.20;99.90;;;;;;5080999;28;20372;-79
2023/05/08 08:46:09;;;;;;;3.00;2.80;;;16.40;99.90;;;;;;5056753;28;20827;-78
2023/05/08 08:48:37;;;;;;;3.15;2.95;;;16.30;99.90;;;;;;5094028;28;20469;-78
2023/05/08 08:51:10;;;;;;;2.92;2.72;;;16.60;99.90;;;;;;5093274;28;20380;-79
2023/05/08 08:53:41;;;;;;;3.20;2.90;;;16.80;99.90;;;;;;5093589;28;20374;-78
2023/05/08 08:56:07;;;;;;;3.57;3.00;;;16.40;99.90;;;;;;5094577;28;20383;-78
2023/05/08 08:58:42;;;;;;;3.20;2.90;;;17.40;99.90;;;;;;5078910;28;20407;-78
2023/05/08 09:01:13;;;;;;;3.10;2.90;;;17.00;99.90;;;;;;5070611;28;20415;-77
2023/05/08 09:03:39;;;;;;;3.03;2.83;;;16.70;99.90;;;;;;5097307;28;20427;-78
2023/05/08 09:06:05;;;;;;;3.05;2.85;;;16.90;99.90;;;;;;5077120;28;20392;-79
2023/05/08 09:08:31;;;;;;;2.95;2.70;;;17.20;99.90;;;;;;5073089;28;20464;-78
2023/05/08 09:10:57;;;;;;;2.80;2.60;;;17.10;99.90;;;;;;5062490;28;20425;-78
2023/05/08 09:13:22;;;;;;;2.80;2.60;;;17.20;99.90;;;;;;5093372;28;20485;-77
2023/05/08 09:15:49;;;;;;;2.97;2.73;;;16.50;99.90;;;;;;5092940;28;20381;-78
2023/05/08 09:18:15;;;;;;;3.38;3.00;;;17.40;99.90;;;;;;5093926;28;20419;-78
2023/05/08 09:20:40;;;;;;;4.22;3.38;;;18.20;99.90;;;;;;5077385;28;20395;-78
2023/05/08 09:23:07;;;;;;;3.55;3.25;;;17.60;99.90;;;;;;5073642;28;20375;-78
2023/05/08 09:25:46;;;;;;;2.92;2.60;;;17.70;99.90;;;;;;5053849;28;20380;-78
2023/05/08 09:28:19;;;;;;;3.47;3.00;;;17.80;99.90;;;;;;5072278;28;20959;-79
2023/05/08 09:30:58;;;;;;;3.03;2.75;;;17.80;99.90;;;;;;5073281;28;20403;-78
2023/05/08 09:33:26;;;;;;;2.80;2.60;;;17.80;99.90;;;;;;5111701;22;20512;-77
2023/05/08 09:35:52;;;;;;;3.00;2.70;;;17.60;99.90;;;;;;5082795;28;20436;-78
2023/05/08 09:38:32;;;;;;;3.33;3.13;;;17.60;99.90;;;;;;5091886;28;20397;-78
2023/05/08 09:41:15;;;;;;;3.30;3.00;;;17.70;99.90;;;;;;5091448;28;20378;-77
2023/05/08 09:43:42;;;;;;;2.97;2.77;;;17.50;99.90;;;;;;5091673;28;20396;-77
2023/05/08 09:46:25;;;;;;;2.60;2.40;;;17.20;99.90;;;;;;5088948;28;20420;-76
2023/05/08 09:48:53;;;;;;;2.80;2.60;;;17.40;99.90;;;;;;5090367;28;20420;-80
2023/05/08 09:51:19;;;;;;;3.50;2.50;;;16.90;99.90;;;;;;5100092;28;20398;-80
2023/05/08 09:53:45;;;;;;;3.08;2.78;;;17.30;99.90;;;;;;5103146;28;20936;-78
2023/05/08 09:56:10;;;;;;;2.50;2.30;;;17.30;99.90;;;;;;5079681;28;20389;-80
2023/05/08 09:58:39;;;;;;;3.00;2.80;;;17.10;99.90;;;;;;5115942;28;20396;-78
2023/05/08 10:01:06;;;;;;;3.53;2.80;;;17.20;99.90;;;;;;5098815;28;20376;-77
2023/05/08 10:03:48;;;;;;;3.00;2.80;;;17.00;99.90;;;;;;5103128;28;20393;-78
2023/05/08 10:06:14;;;;;;;3.13;2.93;;;17.10;99.90;;;;;;5106701;28;20384;-78
2023/05/08 10:08:40;;;;;;;3.38;2.90;;;17.20;99.90;;;;;;5116912;28;20383;-78
2023/05/08 10:11:14;;;;;;;3.58;3.28;;;17.50;99.90;;;;;;5117667;28;20441;-78
2023/05/08 10:13:39;;;;;;;3.43;3.13;;;16.70;99.90;;;;;;5098776;28;20381;-78
2023/05/08 10:16:06;;;;;;;3.40;3.10;;;17.80;99.90;;;;;;5108987;28;20407;-78
2023/05/08 10:18:34;;;;;;;3.50;3.20;;;17.20;99.90;;;;;;5096444;28;20440;-78
2023/05/08 10:21:04;;;;;;;3.00;2.80;;;16.90;99.90;;;;;;5095866;28;20941;-78
2023/05/08 10:23:33;;;;;;;3.67;3.37;;;17.00;99.90;;;;;;5096310;28;20728;-79
2023/05/08 10:26:07;;;;;;;4.13;3.83;;;17.10;99.90;;;;;;5099462;28;20399;-79
2023/05/08 10:28:53;;;;;;;3.88;3.58;;;17.20;99.90;;;;;;5098396;28;20385;-78
2023/05/08 10:31:20;;;;;;;4.22;3.92;;;17.20;99.90;;;;;;5099761;28;20393;-78
2023/05/08 10:33:50;;;;;;;4.82;4.43;;;16.90;99.90;;;;;;5077841;28;20394;-79
2023/05/08 10:36:16;;;;;;;4.30;4.00;;;17.50;99.90;;;;;;5080291;28;20441;-78
2023/05/08 10:38:42;;;;;;;4.60;4.20;;;17.60;99.90;;;;;;5117051;28;20917;-79
2023/05/08 10:41:09;;;;;;;5.30;3.67;;;16.90;99.90;;;;;;5116922;28;20400;-79
2023/05/08 10:43:40;;;;;;;3.88;3.58;;;17.50;99.90;;;;;;5116455;28;20383;-79
2023/05/08 10:46:29;;;;;;;4.30;3.80;;;17.60;99.90;;;;;;5109116;28;20476;-79
2023/05/08 10:49:42;;;;;;;3.70;3.40;;;18.10;99.90;;;;;;5099625;28;20417;-78
2023/05/08 10:52:41;;;;;;;4.05;3.20;;;17.90;99.90;;;;;;5041737;28;20488;-79
2023/05/08 10:55:17;;;;;;;4.10;3.80;;;18.00;99.90;;;;;;5116874;28;20798;-80
2023/05/08 10:58:05;;;;;;;4.00;3.70;;;18.40;99.90;;;;;;5098380;28;20399;-80
2023/05/08 11:00:56;;;;;;;3.50;3.30;;;18.40;99.90;;;;;;5094646;28;20386;-80
2023/05/08 11:03:26;;;;;;;4.00;3.40;;;18.90;99.90;;;;;;5077450;28;20821;-80
2023/05/08 11:05:53;;;;;;;3.85;3.50;;;18.20;99.90;;;;;;5080352;28;20399;-79
2023/05/08 11:08:24;;;;;;;3.40;3.10;;;18.80;99.90;;;;;;5088858;28;20389;-80
2023/05/08 11:11:03;;;;;;;3.10;2.90;;;19.90;99.90;;;;;;5104604;28;20467;-80
2023/05/08 11:13:53;;;;;;;3.47;2.95;;;19.20;99.90;;;;;;5096179;28;20392;-80
2023/05/08 11:17:02;;;;;;;3.50;3.10;;;19.10;99.90;;;;;;5092613;28;20394;-79
2023/05/08 11:19:28;;;;;;;3.50;3.20;;;18.70;99.90;;;;;;5093354;28;20386;-80
2023/05/08 11:22:14;;;;;;;3.50;3.20;;;18.90;99.90;;;;;;5101789;28;21324;-80
2023/05/08 11:24:47;;;;;;;2.83;2.63;;;18.90;99.90;;;;;;5098987;28;20382;-80
2023/05/08 11:27:14;;;;;;;4.43;3.65;;;19.10;99.90;;;;;;5112109;28;20384;-80
2023/05/08 11:29:40;;;;;;;2.80;2.60;;;19.00;99.90;;;;;;5080265;28;20392;-80
2023/05/08 11:32:05;;;;;;;2.95;2.30;;;19.00;99.90;;;;;;5082384;28;20819;-80
2023/05/08 11:34:47;;;;;;;2.40;2.20;;;18.90;99.90;;;;;;5092627;27;20776;-80
2023/05/08 11:37:22;;;;;;;3.40;2.97;;;19.70;99.90;;;;;;5084949;27;20405;-80
2023/05/08 11:39:48;;;;;;;2.95;2.70;;;19.70;99.90;;;;;;5100442;28;20504;-80
2023/05/08 11:42:32;;;;;;;3.30;2.30;;;19.80;99.90;;;;;;5122678;27;20982;-80
2023/05/08 11:45:02;;;;;;;2.90;2.00;;;19.70;99.90;;;;;;5101495;28;20457;-80
2023/05/08 11:47:40;;;;;;;2.08;1.90;;;19.70;99.90;;;;;;5085690;28;20892;-81
2023/05/08 11:50:07;;;;;;;1.95;1.85;;;20.00;99.90;;;;;;5086120;28;20391;-80
2023/05/08 11:52:34;;;;;;;2.10;2.00;;;19.80;99.90;;;;;;5101850;28;20768;-80
2023/05/08 11:55:03;;;;;;;2.10;2.00;;;20.00;99.90;;;;;;5106684;28;20388;-81
2023/05/08 11:57:30;;;;;;;2.28;2.08;;;21.50;99.80;;;;;;5106177;28;20415;-80
2023/05/08 11:59:56;;;;;;;1.98;1.88;;;22.00;54.30;;;;;;5097516;28;20756;-80
2023/05/08 12:02:39;;;;;;;2.30;2.10;;;22.80;36.90;;;;;;5087362;28;20392;-81
2023/05/08 12:05:06;;;;;;;1.90;1.80;;;23.60;28.40;;;;;;5090916;28;20388;-82
2023/05/08 12:07:31;;;;;;;1.88;1.77;;;22.80;24.90;;;;;;5099356;28;20399;-80
2023/05/08 12:09:59;;;;;;;2.35;2.10;;;20.30;57.40;;;;;;5091312;28;20396;-80
2023/05/08 12:12:35;;;;;;;2.38;2.17;;;21.10;57.80;;;;;;5120000;28;20462;-82
2023/05/08 12:15:05;;;;;;;1.90;1.80;;;21.30;96.60;;;;;;5083471;28;20394;-80
2023/05/08 12:17:31;;;;;;;2.40;2.20;;;20.40;83.60;;;;;;5113936;28;20397;-79
2023/05/08 12:20:07;;;;;;;1.90;1.80;;;20.40;96.10;;;;;;5103424;28;20410;-79
2023/05/08 12:22:33;;;;;;;2.15;2.05;;;19.80;66.50;;;;;;5111378;28;20968;-79
2023/05/08 12:24:59;;;;;;;2.40;2.20;;;19.50;74.90;;;;;;5110674;28;20420;-79
2023/05/08 12:27:25;;;;;;;2.60;2.03;;;19.70;99.90;;;;;;5091589;28;20393;-80
2023/05/08 12:29:51;;;;;;;3.53;2.42;;;19.80;99.90;;;;;;5084128;28;20401;-80
2023/05/08 12:32:16;;;;;;;2.70;2.50;;;19.20;99.90;;;;;;5102524;27;20889;-80
2023/05/08 12:34:42;;;;;;;2.45;2.25;;;19.40;99.90;;;;;;5103744;28;20395;-79
2023/05/08 12:37:07;;;;;;;2.63;2.40;;;19.10;99.90;;;;;;5084376;28;20409;-80
2023/05/08 12:39:36;;;;;;;2.58;2.25;;;18.90;99.90;;;;;;5083442;28;20398;-80
2023/05/08 12:42:01;;;;;;;2.45;2.25;;;19.20;99.90;;;;;;5101845;28;20428;-79
2023/05/08 12:44:56;;;;;;;2.30;2.10;;;19.30;99.90;;;;;;5080145;28;21005;-81
2023/05/08 12:47:21;;;;;;;3.33;2.20;;;19.40;99.90;;;;;;5093781;28;21002;-80
2023/05/08 12:49:49;;;;;;;2.73;2.53;;;19.60;99.90;;;;;;5082534;28;20429;-80
2023/05/08 12:52:16;;;;;;;2.60;2.40;;;19.30;99.90;;;;;;5086505;28;20387;-80
2023/05/08 12:54:47;;;;;;;2.30;2.10;;;19.30;99.90;;;;;;5102775;28;20454;-80
2023/05/08 12:57:18;;;;;;;2.20;2.00;;;19.20;99.90;;;;;;5108358;28;20411;-80
2023/05/08 12:59:44;;;;;;;2.55;2.35;;;19.60;99.90;;;;;;5103339;28;20410;-80